Time;durP1;ratioP1;P1;durP2;ratioP2;P2;SDS_P1;SDS_P2;PMS_P1;PMS_P2;Temp;Humidity;BMP_temperature;BMP_pressure;BME280_temperature;BME280_humidity;BME280_pressure;Samples;Min_cycle;Max_cycle;Signal;HPM_P1;HPM_P2
2020/12/27 00:01:39;;;;;;;12.90;5.75;;;14.90;62.50;;;;;;5030111;28;20120;-67
2020/12/27 00:04:06;;;;;;;10.40;4.72;;;14.80;60.80;;;;;;5029172;28;20395;-67
2020/12/27 00:06:32;;;;;;;12.10;4.70;;;14.80;61.80;;;;;;5029954;28;20030;-69
2020/12/27 00:08:58;;;;;;;10.40;4.93;;;14.80;61.90;;;;;;5029840;28;20047;-66
2020/12/27 00:11:23;;;;;;;12.23;5.13;;;14.90;62.30;;;;;;5024799;28;20026;-68
2020/12/27 00:13:49;;;;;;;11.98;5.35;;;14.90;62.50;;;;;;5019731;28;20075;-68
2020/12/27 00:16:15;;;;;;;88.97;46.97;;;14.90;61.90;;;;;;5029813;28;20128;-65
2020/12/27 00:18:40;;;;;;;28.13;13.85;;;14.90;62.40;;;;;;4995826;28;20025;-66
2020/12/27 00:21:12;;;;;;;14.98;7.50;;;14.80;62.10;;;;;;4992391;28;20026;-64
2020/12/27 00:23:38;;;;;;;11.15;4.95;;;14.80;62.20;;;;;;5009890;28;20442;-65
2020/12/27 00:26:12;;;;;;;11.75;5.03;;;14.70;61.60;;;;;;5009760;28;20124;-69
2020/12/27 00:28:39;;;;;;;22.95;13.25;;;14.60;60.80;;;;;;5012033;28;20026;-68
2020/12/27 00:31:04;;;;;;;13.57;6.97;;;14.50;61.40;;;;;;5013830;28;20021;-68
2020/12/27 00:33:31;;;;;;;11.40;5.15;;;14.50;61.20;;;;;;5033016;28;20025;-64
2020/12/27 00:35:56;;;;;;;30.15;19.58;;;14.60;59.90;;;;;;5033228;28;20036;-68
2020/12/27 00:38:22;;;;;;;16.73;9.82;;;14.60;60.90;;;;;;5015399;28;20033;-68
2020/12/27 00:40:48;;;;;;;10.32;5.68;;;14.70;61.40;;;;;;5036115;28;20032;-65
2020/12/27 00:43:13;;;;;;;64.90;41.13;;;14.60;60.50;;;;;;5034648;28;20051;-65
2020/12/27 00:45:39;;;;;;;29.75;19.95;;;14.60;60.20;;;;;;5043934;28;20546;-68
2020/12/27 00:48:04;;;;;;;17.38;10.88;;;14.60;61.40;;;;;;5027367;28;20042;-65
2020/12/27 00:50:30;;;;;;;12.65;6.93;;;14.60;61.30;;;;;;5033050;28;20105;-67
2020/12/27 00:52:55;;;;;;;13.38;8.25;;;14.50;60.10;;;;;;5028004;28;20084;-66
2020/12/27 00:55:21;;;;;;;16.05;9.10;;;14.50;60.40;;;;;;5006833;28;20021;-65
2020/12/27 00:57:46;;;;;;;14.82;8.60;;;14.40;60.80;;;;;;5032675;28;20038;-65
2020/12/27 01:00:12;;;;;;;12.25;7.45;;;14.60;60.90;;;;;;5031187;28;20021;-68
2020/12/27 01:02:37;;;;;;;12.80;6.80;;;14.60;60.80;;;;;;5014223;28;20101;-68
2020/12/27 01:05:03;;;;;;;9.23;4.55;;;14.70;61.00;;;;;;5021448;28;20041;-64
2020/12/27 01:07:29;;;;;;;15.75;4.72;;;14.60;59.40;;;;;;5014400;28;20021;-65
2020/12/27 01:09:54;;;;;;;9.45;5.00;;;14.40;58.60;;;;;;4996812;28;20497;-66
2020/12/27 01:12:20;;;;;;;9.40;3.85;;;14.50;61.10;;;;;;5008563;28;20112;-68
2020/12/27 01:14:45;;;;;;;9.80;4.22;;;14.50;61.40;;;;;;5012955;28;20048;-65
2020/12/27 01:17:11;;;;;;;9.15;4.00;;;14.40;61.10;;;;;;4999223;28;20081;-68
2020/12/27 01:19:36;;;;;;;6.88;3.22;;;14.30;60.80;;;;;;5021154;28;20033;-69
2020/12/27 01:22:02;;;;;;;8.52;4.63;;;14.30;60.30;;;;;;4996510;28;20053;-65
2020/12/27 01:24:27;;;;;;;12.00;4.00;;;14.30;59.50;;;;;;4999656;28;20049;-65
2020/12/27 01:26:53;;;;;;;5.05;2.47;;;14.40;60.80;;;;;;5022094;28;20028;-66
2020/12/27 01:29:19;;;;;;;6.63;2.50;;;14.30;59.60;;;;;;5013610;28;20479;-66
2020/12/27 01:31:44;;;;;;;6.35;2.50;;;14.30;60.20;;;;;;5025841;28;20060;-67
2020/12/27 01:34:10;;;;;;;5.65;2.78;;;14.20;60.40;;;;;;5017815;28;20132;-65
2020/12/27 01:36:36;;;;;;;5.80;2.10;;;14.20;60.60;;;;;;5020153;28;20021;-65
2020/12/27 01:39:06;;;;;;;9.38;2.58;;;14.10;59.00;;;;;;5003968;28;20056;-65
2020/12/27 01:41:32;;;;;;;4.63;2.08;;;14.10;59.30;;;;;;4995785;28;20080;-65
2020/12/27 01:44:02;;;;;;;5.25;1.80;;;14.00;59.50;;;;;;5021036;28;20042;-65
2020/12/27 01:46:32;;;;;;;5.38;2.00;;;14.10;60.30;;;;;;5013832;28;20022;-66
2020/12/27 01:48:57;;;;;;;5.18;1.90;;;14.20;59.60;;;;;;5029307;28;20029;-65
2020/12/27 01:51:23;;;;;;;5.38;1.90;;;14.20;59.50;;;;;;5031851;28;20065;-65
2020/12/27 01:53:49;;;;;;;5.22;1.80;;;14.30;60.70;;;;;;5013209;28;20024;-65
2020/12/27 01:56:17;;;;;;;4.05;1.90;;;14.20;60.50;;;;;;5025648;28;20544;-65
2020/12/27 01:58:46;;;;;;;4.32;1.90;;;14.20;60.40;;;;;;5011962;28;20030;-65
2020/12/27 02:01:12;;;;;;;4.90;1.80;;;14.10;60.40;;;;;;5013408;28;20056;-68
2020/12/27 02:03:40;;;;;;;3.50;1.60;;;14.20;60.40;;;;;;5023365;28;20036;-65
2020/12/27 02:06:06;;;;;;;3.25;1.50;;;14.10;59.30;;;;;;5025611;28;20108;-66
2020/12/27 02:08:32;;;;;;;3.88;1.60;;;14.00;59.90;;;;;;4998927;28;20080;-68
2020/12/27 02:10:59;;;;;;;3.47;1.30;;;14.00;59.50;;;;;;4997903;28;20022;-69
2020/12/27 02:13:24;;;;;;;3.83;1.40;;;14.10;59.70;;;;;;4998832;28;20025;-66
2020/12/27 02:15:50;;;;;;;4.82;1.40;;;14.10;60.10;;;;;;5012833;28;20029;-68
2020/12/27 02:18:15;;;;;;;3.10;1.38;;;14.10;60.40;;;;;;5013056;28;20030;-65
2020/12/27 02:20:41;;;;;;;2.22;1.30;;;14.00;59.40;;;;;;5030873;28;20104;-65
2020/12/27 02:23:15;;;;;;;3.28;1.35;;;14.00;59.70;;;;;;5004427;28;20125;-65
2020/12/27 02:25:40;;;;;;;2.92;1.40;;;14.10;60.20;;;;;;5017496;28;20045;-65
2020/12/27 02:28:06;;;;;;;3.05;1.10;;;14.10;59.60;;;;;;5013123;28;20036;-65
2020/12/27 02:30:31;;;;;;;1.77;1.00;;;14.00;60.30;;;;;;5014006;28;20101;-68
2020/12/27 02:32:57;;;;;;;3.15;1.30;;;13.90;59.80;;;;;;5000985;28;20084;-68
2020/12/27 02:35:22;;;;;;;1.80;1.10;;;13.90;60.20;;;;;;5023037;28;20034;-65
2020/12/27 02:37:48;;;;;;;4.18;1.20;;;13.90;60.10;;;;;;5030306;28;20030;-66
2020/12/27 02:40:14;;;;;;;2.80;1.23;;;13.80;59.40;;;;;;5016593;28;20105;-65
2020/12/27 02:42:40;;;;;;;2.55;1.20;;;13.70;59.60;;;;;;5014945;28;20036;-66
2020/12/27 02:45:10;;;;;;;3.05;1.00;;;13.80;58.80;;;;;;4998188;28;20030;-68
2020/12/27 02:47:39;;;;;;;3.33;1.20;;;13.90;60.10;;;;;;5014398;28;20018;-64
2020/12/27 02:50:11;;;;;;;3.35;1.05;;;13.80;58.80;;;;;;5012499;28;20049;-64
2020/12/27 02:52:38;;;;;;;1.98;0.90;;;13.70;58.30;;;;;;5023550;28;20026;-68
2020/12/27 02:55:04;;;;;;;2.28;1.10;;;13.70;59.60;;;;;;5028211;28;20028;-65
2020/12/27 02:57:30;;;;;;;1.95;0.82;;;13.80;59.40;;;;;;5031828;28;20082;-69
2020/12/27 02:59:55;;;;;;;1.50;0.90;;;13.90;59.60;;;;;;5017614;28;20628;-65
2020/12/27 03:02:21;;;;;;;3.58;1.05;;;13.90;59.50;;;;;;5012427;28;20030;-63
2020/12/27 03:04:46;;;;;;;1.60;0.80;;;13.80;58.30;;;;;;5008049;28;20029;-68
2020/12/27 03:07:13;;;;;;;2.05;0.90;;;13.70;60.10;;;;;;5009007;28;20398;-67
2020/12/27 03:09:38;;;;;;;1.70;0.98;;;13.80;58.70;;;;;;5000153;28;20393;-68
2020/12/27 03:12:04;;;;;;;2.80;1.00;;;13.70;60.50;;;;;;5028615;28;20033;-66
2020/12/27 03:14:29;;;;;;;1.15;0.80;;;13.70;60.40;;;;;;5013684;28;20042;-66
2020/12/27 03:16:55;;;;;;;2.17;0.85;;;13.70;59.90;;;;;;5014871;28;20450;-69
2020/12/27 03:19:20;;;;;;;2.72;0.93;;;13.70;58.00;;;;;;5019251;28;20236;-65
2020/12/27 03:21:46;;;;;;;2.13;0.80;;;13.70;60.00;;;;;;5004839;28;20055;-65
2020/12/27 03:24:11;;;;;;;1.05;0.80;;;13.80;60.70;;;;;;5020125;28;20402;-63
2020/12/27 03:26:37;;;;;;;1.70;0.80;;;13.60;59.70;;;;;;5018503;28;20072;-65
2020/12/27 03:29:02;;;;;;;2.05;0.90;;;13.60;60.10;;;;;;4992810;28;20049;-69
2020/12/27 03:31:28;;;;;;;2.85;1.10;;;13.60;59.60;;;;;;5017819;28;20097;-65
2020/12/27 03:33:53;;;;;;;1.73;0.70;;;13.50;57.80;;;;;;5018405;28;20034;-68
2020/12/27 03:36:19;;;;;;;2.15;0.93;;;13.50;59.80;;;;;;5000844;28;20060;-65
2020/12/27 03:38:45;;;;;;;1.90;0.80;;;13.50;58.70;;;;;;4997844;28;20042;-67
2020/12/27 03:41:10;;;;;;;3.72;0.90;;;13.50;59.10;;;;;;5009872;28;20029;-65
2020/12/27 03:43:36;;;;;;;1.05;0.70;;;13.50;59.10;;;;;;5021832;28;20029;-67
2020/12/27 03:46:01;;;;;;;2.40;0.88;;;13.40;57.60;;;;;;4996809;28;20056;-65
2020/12/27 03:48:27;;;;;;;1.23;0.70;;;13.50;58.50;;;;;;5012192;28;20038;-68
2020/12/27 03:50:52;;;;;;;2.53;0.95;;;13.50;59.50;;;;;;5006481;28;20025;-65
2020/12/27 03:53:18;;;;;;;0.82;0.70;;;13.60;59.70;;;;;;5019054;28;20036;-64
2020/12/27 03:55:43;;;;;;;1.33;0.70;;;13.60;60.00;;;;;;5002046;28;20037;-65
2020/12/27 03:58:09;;;;;;;1.52;0.80;;;13.60;60.40;;;;;;5009264;28;20036;-67
2020/12/27 04:00:35;;;;;;;1.23;0.80;;;13.60;60.90;;;;;;5027037;28;20679;-66
2020/12/27 04:03:00;;;;;;;3.50;0.85;;;13.60;59.20;;;;;;5011406;28;20022;-65
2020/12/27 04:05:26;;;;;;;1.83;0.80;;;13.60;60.60;;;;;;5008256;28;20026;-65
2020/12/27 04:07:51;;;;;;;4.40;0.70;;;13.60;60.50;;;;;;5032037;28;20061;-67
2020/12/27 04:10:17;;;;;;;1.73;0.75;;;13.70;60.70;;;;;;5014387;28;20025;-67
2020/12/27 04:12:42;;;;;;;1.30;0.70;;;13.80;60.70;;;;;;5033535;28;20021;-65
2020/12/27 04:15:08;;;;;;;1.40;0.75;;;13.60;60.30;;;;;;5017557;28;20117;-65
2020/12/27 04:17:34;;;;;;;2.22;0.90;;;13.70;60.80;;;;;;5013926;28;20034;-65
2020/12/27 04:19:59;;;;;;;2.60;0.80;;;13.60;59.60;;;;;;5027014;28;20469;-69
2020/12/27 04:22:25;;;;;;;2.20;0.70;;;13.60;60.30;;;;;;5015837;28;20423;-64
2020/12/27 04:24:50;;;;;;;1.50;0.60;;;13.60;60.50;;;;;;5015357;28;20064;-65
2020/12/27 04:27:16;;;;;;;1.42;0.70;;;13.40;59.60;;;;;;5033558;28;20052;-65
2020/12/27 04:29:41;;;;;;;1.70;0.80;;;13.50;60.80;;;;;;5005213;28;20383;-65
2020/12/27 04:32:07;;;;;;;2.17;0.80;;;13.40;60.40;;;;;;4996325;28;20026;-65
2020/12/27 04:34:32;;;;;;;1.88;0.73;;;13.60;60.90;;;;;;4995763;28;20022;-65
2020/12/27 04:36:58;;;;;;;1.80;0.57;;;13.60;61.00;;;;;;5031695;28;20038;-68
2020/12/27 04:39:23;;;;;;;1.60;0.65;;;13.50;60.90;;;;;;5024640;28;20398;-65
2020/12/27 04:41:49;;;;;;;2.70;0.70;;;13.50;61.20;;;;;;5011163;28;20037;-64
2020/12/27 04:44:15;;;;;;;1.35;0.63;;;13.50;60.30;;;;;;5021176;28;20395;-65
2020/12/27 04:46:41;;;;;;;1.85;0.60;;;13.60;60.50;;;;;;5029732;28;20029;-65
2020/12/27 04:49:08;;;;;;;0.90;0.70;;;13.50;60.80;;;;;;5010047;28;20026;-64
2020/12/27 04:51:35;;;;;;;1.08;0.70;;;13.50;59.40;;;;;;5017391;28;20087;-64
2020/12/27 04:54:01;;;;;;;0.57;0.50;;;13.40;60.30;;;;;;5020284;28;20032;-65
2020/12/27 04:56:26;;;;;;;1.60;0.80;;;13.40;60.80;;;;;;4995640;28;20120;-68
2020/12/27 04:58:56;;;;;;;2.38;0.90;;;13.30;58.90;;;;;;5015826;28;20036;-67
2020/12/27 05:01:23;;;;;;;1.25;0.70;;;13.30;61.00;;;;;;5005538;28;20145;-68
2020/12/27 05:03:55;;;;;;;0.55;0.50;;;13.20;60.10;;;;;;5014287;28;20026;-66
2020/12/27 05:06:20;;;;;;;1.55;0.80;;;13.30;59.20;;;;;;5002426;28;20026;-66
2020/12/27 05:08:46;;;;;;;1.10;0.52;;;13.20;58.80;;;;;;5018810;28;20029;-65
2020/12/27 05:11:14;;;;;;;1.90;0.50;;;13.40;61.10;;;;;;5023804;28;20027;-67
2020/12/27 05:13:43;;;;;;;1.13;0.60;;;13.30;60.40;;;;;;5012431;28;20025;-65
2020/12/27 05:16:08;;;;;;;1.10;0.60;;;13.20;60.90;;;;;;4996969;28;20109;-68
2020/12/27 05:18:34;;;;;;;0.75;0.52;;;13.30;61.00;;;;;;4999983;28;20509;-64
2020/12/27 05:21:01;;;;;;;1.05;0.50;;;13.10;58.90;;;;;;5014624;28;20619;-65
2020/12/27 05:23:27;;;;;;;1.92;1.00;;;13.20;61.20;;;;;;5006546;28;20057;-67
2020/12/27 05:25:53;;;;;;;0.82;0.50;;;13.20;61.00;;;;;;5012365;28;20111;-64
2020/12/27 05:28:19;;;;;;;1.80;0.52;;;13.30;61.00;;;;;;5018589;28;20108;-68
2020/12/27 05:30:45;;;;;;;1.35;0.60;;;13.30;61.30;;;;;;5020360;28;20108;-65
2020/12/27 05:33:16;;;;;;;1.52;0.60;;;13.30;61.30;;;;;;4995569;28;20472;-65
2020/12/27 05:35:43;;;;;;;1.13;0.60;;;13.40;60.90;;;;;;5032904;28;20506;-65
2020/12/27 05:38:10;;;;;;;1.25;0.60;;;13.20;60.80;;;;;;5016337;28;20401;-66
2020/12/27 05:40:40;;;;;;;3.05;0.80;;;13.30;61.00;;;;;;5028057;28;20033;-65
2020/12/27 05:43:16;;;;;;;2.40;0.50;;;13.30;61.10;;;;;;5018620;28;20049;-67
2020/12/27 05:45:43;;;;;;;0.90;0.40;;;13.20;60.40;;;;;;5027988;28;20044;-67
2020/12/27 05:48:09;;;;;;;1.00;0.60;;;13.30;60.60;;;;;;5026651;28;20030;-64
2020/12/27 05:50:40;;;;;;;1.20;0.70;;;13.40;61.10;;;;;;5009773;28;20034;-68
2020/12/27 05:53:23;;;;;;;0.77;0.50;;;13.40;61.10;;;;;;5012084;28;20117;-65
2020/12/27 05:55:51;;;;;;;2.35;0.57;;;13.20;60.40;;;;;;5013783;28;20367;-64
2020/12/27 05:58:19;;;;;;;1.40;0.80;;;13.20;61.40;;;;;;5007527;28;20490;-67
2020/12/27 06:00:49;;;;;;;2.28;0.50;;;13.40;61.00;;;;;;5027013;28;20071;-64
2020/12/27 06:03:20;;;;;;;2.15;0.70;;;13.40;60.60;;;;;;5013390;28;20501;-68
2020/12/27 06:05:58;;;;;;;2.15;0.68;;;13.40;60.80;;;;;;5013853;28;20030;-64
2020/12/27 06:08:49;;;;;;;1.25;0.60;;;13.40;60.60;;;;;;5006723;28;20053;-65
2020/12/27 06:11:23;;;;;;;1.85;0.60;;;13.40;60.70;;;;;;5026966;28;20033;-68
2020/12/27 06:14:07;;;;;;;1.58;0.57;;;13.30;59.60;;;;;;5015447;28;20100;-68
2020/12/27 06:16:48;;;;;;;1.17;0.60;;;13.30;60.10;;;;;;5026502;28;20029;-67
2020/12/27 06:19:23;;;;;;;0.60;0.60;;;13.30;60.20;;;;;;5025402;28;20017;-64
2020/12/27 06:22:03;;;;;;;2.20;0.63;;;13.20;59.70;;;;;;4994199;28;20037;-65
2020/12/27 06:24:30;;;;;;;0.70;0.50;;;13.20;60.30;;;;;;5009097;28;20026;-65
2020/12/27 06:26:57;;;;;;;1.75;0.70;;;13.30;61.40;;;;;;5030662;28;20041;-64
2020/12/27 06:29:22;;;;;;;1.25;0.52;;;13.20;60.80;;;;;;5006230;28;20385;-65
2020/12/27 06:31:50;;;;;;;0.55;0.50;;;13.20;60.60;;;;;;5011662;28;20036;-65
2020/12/27 06:34:17;;;;;;;1.70;0.82;;;13.20;61.10;;;;;;5006467;28;20401;-67
2020/12/27 06:36:42;;;;;;;1.40;0.70;;;13.10;60.90;;;;;;5013363;28;20018;-62
2020/12/27 06:39:28;;;;;;;2.17;0.68;;;13.20;60.90;;;;;;5002572;28;20036;-67
2020/12/27 06:42:11;;;;;;;2.92;0.70;;;13.20;61.20;;;;;;5012556;28;20047;-65
2020/12/27 06:44:44;;;;;;;3.30;0.70;;;13.20;60.60;;;;;;5030598;28;20036;-62
2020/12/27 06:47:11;;;;;;;1.33;0.60;;;13.20;60.60;;;;;;5030897;28;20017;-67
2020/12/27 06:49:37;;;;;;;1.75;0.65;;;13.20;61.30;;;;;;5005142;28;20049;-65
2020/12/27 06:52:19;;;;;;;1.52;0.60;;;13.20;60.90;;;;;;5011002;28;20030;-65
2020/12/27 06:54:49;;;;;;;1.92;0.60;;;13.20;61.40;;;;;;5019434;28;20026;-69
2020/12/27 06:57:45;;;;;;;1.05;0.57;;;13.30;60.70;;;;;;5016804;28;20032;-66
2020/12/27 07:00:28;;;;;;;1.02;0.70;;;13.20;60.90;;;;;;5012748;28;20026;-63
2020/12/27 07:03:10;;;;;;;2.95;1.20;;;13.10;59.90;;;;;;5030343;28;20033;-64
2020/12/27 07:05:39;;;;;;;1.10;0.57;;;13.10;59.40;;;;;;5030582;28;20036;-65
2020/12/27 07:08:07;;;;;;;0.90;0.60;;;13.20;61.20;;;;;;5026778;28;20514;-64
2020/12/27 07:10:50;;;;;;;1.50;0.50;;;13.20;61.30;;;;;;5017921;28;20108;-65
2020/12/27 07:13:17;;;;;;;0.82;0.60;;;13.10;61.20;;;;;;5011382;28;20022;-64
2020/12/27 07:15:47;;;;;;;1.50;0.60;;;13.10;60.60;;;;;;4994106;28;20026;-66
2020/12/27 07:18:23;;;;;;;0.88;0.60;;;13.10;61.40;;;;;;5019112;28;20033;-64
2020/12/27 07:20:53;;;;;;;1.77;0.60;;;13.10;61.60;;;;;;5030586;28;20040;-65
2020/12/27 07:23:29;;;;;;;1.02;0.50;;;13.00;60.80;;;;;;5021799;28;20517;-65
2020/12/27 07:25:58;;;;;;;1.13;0.60;;;13.10;60.30;;;;;;5015590;28;20065;-68
2020/12/27 07:28:24;;;;;;;2.03;0.70;;;13.00;60.20;;;;;;5021128;28;20112;-65
2020/12/27 07:30:58;;;;;;;2.30;0.65;;;13.00;61.40;;;;;;5002376;28;20032;-64
2020/12/27 07:33:35;;;;;;;0.47;0.40;;;13.10;61.30;;;;;;5000379;28;20030;-67
2020/12/27 07:36:08;;;;;;;0.88;0.60;;;13.10;61.40;;;;;;5027754;28;20113;-64
2020/12/27 07:38:40;;;;;;;1.02;0.60;;;13.00;60.80;;;;;;5030039;28;20116;-69
2020/12/27 07:41:08;;;;;;;2.25;0.70;;;12.90;60.10;;;;;;5017232;28;20061;-65
2020/12/27 07:43:34;;;;;;;1.42;0.70;;;13.00;61.30;;;;;;5014700;28;20030;-65
2020/12/27 07:46:07;;;;;;;1.80;0.63;;;13.00;61.10;;;;;;5015374;28;20021;-66
2020/12/27 07:48:39;;;;;;;1.67;0.60;;;13.00;61.40;;;;;;5003362;28;20021;-66
2020/12/27 07:51:24;;;;;;;2.47;0.77;;;13.10;61.10;;;;;;5018569;28;20026;-65
2020/12/27 07:53:56;;;;;;;2.70;0.70;;;12.90;61.30;;;;;;5023885;28;20045;-65
2020/12/27 07:56:23;;;;;;;1.23;0.70;;;13.00;60.60;;;;;;5020839;28;20033;-65
2020/12/27 07:58:50;;;;;;;2.67;0.70;;;12.80;60.50;;;;;;5024650;28;20025;-63
2020/12/27 08:01:21;;;;;;;3.90;0.70;;;12.80;61.20;;;;;;5025845;28;20040;-65
2020/12/27 08:03:57;;;;;;;4.75;1.00;;;13.00;61.80;;;;;;5030385;28;20041;-65
2020/12/27 08:06:24;;;;;;;1.70;0.70;;;12.90;61.20;;;;;;5028394;28;20057;-64
2020/12/27 08:09:06;;;;;;;1.88;0.70;;;13.00;61.20;;;;;;5007555;28;20028;-67
2020/12/27 08:11:33;;;;;;;3.72;0.80;;;13.00;61.00;;;;;;5006598;28;20504;-65
2020/12/27 08:14:04;;;;;;;32.53;4.95;;;12.80;60.60;;;;;;5013671;28;20049;-62
2020/12/27 08:16:30;;;;;;;5.32;0.70;;;12.90;61.20;;;;;;5018953;28;20048;-69
2020/12/27 08:19:04;;;;;;;1.80;1.10;;;12.80;61.20;;;;;;5000229;28;20087;-67
2020/12/27 08:21:30;;;;;;;1.73;0.70;;;12.60;60.30;;;;;;5031292;28;20162;-64
2020/12/27 08:24:01;;;;;;;5.28;0.68;;;12.80;61.00;;;;;;5012047;28;20674;-66
2020/12/27 08:26:28;;;;;;;2.90;0.80;;;12.70;60.60;;;;;;5029657;28;20033;-66
2020/12/27 08:29:07;;;;;;;3.58;1.10;;;12.70;61.40;;;;;;5028408;28;20465;-67
2020/12/27 08:31:33;;;;;;;5.40;1.50;;;12.80;60.40;;;;;;5025951;28;20079;-63
2020/12/27 08:34:11;;;;;;;5.13;0.75;;;12.70;60.70;;;;;;5029410;28;20104;-67
2020/12/27 08:36:51;;;;;;;4.28;1.10;;;12.80;59.10;;;;;;5025669;28;20026;-64
2020/12/27 08:39:38;;;;;;;5.63;1.13;;;12.90;59.70;;;;;;5026154;28;20609;-65
2020/12/27 08:42:08;;;;;;;5.03;1.00;;;13.00;59.10;;;;;;5009695;28;20120;-65
2020/12/27 08:44:43;;;;;;;2.63;0.80;;;12.90;59.00;;;;;;5030766;28;20025;-65
2020/12/27 08:47:47;;;;;;;5.30;0.93;;;12.90;59.60;;;;;;5015164;28;20105;-68
2020/12/27 08:50:17;;;;;;;4.38;0.90;;;13.00;58.20;;;;;;5002476;28;20048;-67
2020/12/27 08:52:48;;;;;;;4.40;1.10;;;13.10;59.80;;;;;;5036021;28;20029;-69
2020/12/27 08:55:15;;;;;;;5.80;0.85;;;13.00;59.30;;;;;;5008692;28;20025;-67
2020/12/27 08:57:43;;;;;;;9.38;1.20;;;12.90;59.80;;;;;;5011975;28;20057;-66
2020/12/27 09:00:10;;;;;;;5.18;0.93;;;13.10;59.70;;;;;;5040055;28;20025;-65
2020/12/27 09:02:37;;;;;;;3.47;0.90;;;13.10;60.00;;;;;;5028927;28;20021;-65
2020/12/27 09:05:08;;;;;;;5.03;1.05;;;13.20;60.30;;;;;;5020432;28;20048;-65
2020/12/27 09:07:44;;;;;;;4.15;0.90;;;13.10;59.00;;;;;;5013856;28;20017;-68
2020/12/27 09:10:17;;;;;;;2.60;0.80;;;13.20;58.60;;;;;;5033428;28;20022;-63
2020/12/27 09:13:03;;;;;;;2.80;0.80;;;13.30;59.00;;;;;;5036004;28;20037;-63
2020/12/27 09:15:31;;;;;;;3.45;0.93;;;13.40;57.90;;;;;;5022110;28;20035;-64
2020/12/27 09:18:02;;;;;;;3.50;0.80;;;13.50;58.30;;;;;;5042826;28;20632;-65
2020/12/27 09:20:29;;;;;;;6.57;1.10;;;13.50;57.70;;;;;;5015104;28;20083;-64
2020/12/27 09:22:54;;;;;;;2.83;0.70;;;13.60;58.80;;;;;;5027668;28;20026;-64
2020/12/27 09:25:22;;;;;;;4.68;1.20;;;13.70;57.90;;;;;;5009835;28;20029;-64
2020/12/27 09:27:49;;;;;;;4.60;0.98;;;13.60;58.40;;;;;;5024802;28;20033;-65
2020/12/27 09:30:22;;;;;;;3.08;0.90;;;13.60;58.20;;;;;;5031618;28;20029;-66
2020/12/27 09:32:48;;;;;;;2.42;0.70;;;13.60;58.50;;;;;;5019740;28;20052;-65
2020/12/27 09:35:22;;;;;;;2.63;0.63;;;13.60;57.60;;;;;;5008087;28;20471;-64
2020/12/27 09:37:49;;;;;;;3.25;0.80;;;13.60;58.40;;;;;;5016850;28;20077;-65
2020/12/27 09:40:16;;;;;;;3.25;0.60;;;13.70;58.40;;;;;;5019844;28;20025;-65
2020/12/27 09:42:42;;;;;;;4.45;0.82;;;13.70;57.60;;;;;;5023483;28;20033;-67
2020/12/27 09:45:25;;;;;;;2.25;0.77;;;13.60;57.30;;;;;;5025995;28;20022;-67
2020/12/27 09:47:52;;;;;;;3.30;0.77;;;13.60;58.50;;;;;;4999810;28;20017;-66
2020/12/27 09:50:44;;;;;;;6.93;1.05;;;13.50;57.80;;;;;;4999819;28;20652;-67
2020/12/27 09:53:17;;;;;;;2.85;0.80;;;13.60;58.60;;;;;;5021261;28;20026;-64
2020/12/27 09:55:43;;;;;;;4.45;0.90;;;13.60;56.40;;;;;;5015137;28;20030;-66
2020/12/27 09:58:12;;;;;;;3.85;1.00;;;13.60;57.50;;;;;;5014973;28;20031;-64
2020/12/27 10:00:37;;;;;;;5.70;1.20;;;13.60;57.30;;;;;;5005545;28;20048;-66
2020/12/27 10:03:03;;;;;;;6.57;1.13;;;13.50;57.80;;;;;;5031422;28;20313;-64
2020/12/27 10:05:29;;;;;;;5.82;0.80;;;13.60;57.40;;;;;;5021878;28;20541;-64
2020/12/27 10:07:54;;;;;;;4.30;1.02;;;13.70;57.00;;;;;;5024885;28;20382;-63
2020/12/27 10:10:20;;;;;;;4.75;0.88;;;13.60;57.60;;;;;;5024951;28;20042;-65
2020/12/27 10:12:45;;;;;;;3.22;1.20;;;13.70;58.00;;;;;;5005158;28;20048;-64
2020/12/27 10:15:11;;;;;;;7.78;1.58;;;13.70;57.50;;;;;;5000991;28;20131;-65
2020/12/27 10:17:37;;;;;;;11.80;1.30;;;13.70;59.20;;;;;;5017757;28;20498;-68
2020/12/27 10:20:04;;;;;;;34.55;20.05;;;13.80;58.30;;;;;;5023086;28;20033;-64
2020/12/27 10:22:29;;;;;;;13.82;6.18;;;13.70;58.40;;;;;;5023781;28;20052;-66
2020/12/27 10:24:55;;;;;;;11.02;4.50;;;13.70;58.70;;;;;;5005570;28;20494;-65
2020/12/27 10:27:21;;;;;;;11.05;3.10;;;13.80;59.00;;;;;;5020931;28;20383;-65
2020/12/27 10:29:47;;;;;;;9.32;3.10;;;13.70;57.90;;;;;;5028083;28;20104;-65
2020/12/27 10:32:13;;;;;;;21.23;6.10;;;13.70;58.40;;;;;;5023791;28;20441;-67
2020/12/27 10:34:38;;;;;;;19.20;6.00;;;13.80;59.20;;;;;;5028874;28;20033;-68
2020/12/27 10:37:05;;;;;;;18.95;5.63;;;13.70;60.00;;;;;;5004019;28;20631;-68
2020/12/27 10:39:31;;;;;;;14.13;4.53;;;13.70;60.50;;;;;;5014219;28;20030;-67
2020/12/27 10:41:57;;;;;;;15.65;4.28;;;13.60;60.50;;;;;;5019248;28;20375;-67
2020/12/27 10:44:24;;;;;;;20.45;5.05;;;13.70;61.20;;;;;;5012967;28;20034;-66
2020/12/27 10:46:50;;;;;;;26.52;7.03;;;13.70;61.70;;;;;;5023333;28;20053;-65
2020/12/27 10:49:17;;;;;;;11.73;2.95;;;13.80;62.60;;;;;;5029714;28;20083;-65
2020/12/27 10:51:43;;;;;;;12.75;3.28;;;13.60;61.50;;;;;;5002380;28;20466;-64
2020/12/27 10:54:11;;;;;;;8.55;2.60;;;13.70;61.70;;;;;;5027011;28;20049;-65
2020/12/27 10:56:36;;;;;;;11.88;3.08;;;13.60;61.50;;;;;;5021248;28;20057;-67
2020/12/27 10:59:02;;;;;;;9.65;2.72;;;13.50;61.20;;;;;;4996421;28;20061;-66
2020/12/27 11:01:27;;;;;;;8.32;2.00;;;13.60;61.30;;;;;;5023115;28;20082;-65
2020/12/27 11:03:53;;;;;;;8.55;2.10;;;13.50;60.80;;;;;;5025208;28;20390;-65
2020/12/27 11:06:19;;;;;;;8.93;2.20;;;13.50;61.20;;;;;;5017379;28;20061;-67
2020/12/27 11:08:45;;;;;;;7.55;1.92;;;13.50;61.80;;;;;;5017878;28;20030;-65
2020/12/27 11:11:10;;;;;;;6.78;1.90;;;13.60;60.60;;;;;;5025093;28;20037;-64
2020/12/27 11:13:36;;;;;;;5.30;1.77;;;13.40;60.10;;;;;;5012220;28;20041;-65
2020/12/27 11:16:03;;;;;;;3.92;1.38;;;13.40;60.70;;;;;;5029652;28;20029;-67
2020/12/27 11:18:28;;;;;;;7.63;1.50;;;13.40;61.30;;;;;;5000158;28;20029;-65
2020/12/27 11:20:54;;;;;;;8.52;1.77;;;13.30;61.10;;;;;;5004239;28;20022;-66
2020/12/27 11:23:20;;;;;;;4.10;1.20;;;13.30;61.40;;;;;;5011268;28;20117;-64
2020/12/27 11:25:47;;;;;;;6.80;1.58;;;13.20;61.40;;;;;;5005212;28;20679;-63
2020/12/27 11:28:12;;;;;;;5.88;1.45;;;13.30;62.70;;;;;;5023186;28;20029;-63
2020/12/27 11:30:38;;;;;;;8.07;1.55;;;13.40;61.70;;;;;;5019552;28;20673;-63
2020/12/27 11:33:03;;;;;;;6.82;1.45;;;13.50;61.80;;;;;;5016081;28;20511;-67
2020/12/27 11:35:29;;;;;;;10.52;2.08;;;13.40;62.10;;;;;;5004085;28;20037;-67
2020/12/27 11:37:54;;;;;;;52.83;22.23;;;13.50;62.20;;;;;;4993694;28;20057;-64
2020/12/27 11:40:20;;;;;;;19.83;6.00;;;13.40;61.20;;;;;;4997833;28;20032;-68
2020/12/27 11:42:46;;;;;;;15.82;3.83;;;13.30;61.90;;;;;;5021394;28;20124;-67
2020/12/27 11:45:12;;;;;;;8.20;2.10;;;13.30;62.50;;;;;;5016221;28;20128;-68
2020/12/27 11:47:38;;;;;;;12.77;2.53;;;13.30;61.70;;;;;;5018936;28;20032;-67
2020/12/27 11:50:05;;;;;;;10.73;2.38;;;13.20;62.60;;;;;;4995820;28;20029;-67
2020/12/27 11:52:31;;;;;;;7.57;1.65;;;13.20;61.70;;;;;;5001322;28;20395;-68
2020/12/27 11:54:57;;;;;;;8.27;2.30;;;13.20;62.70;;;;;;4998601;28;20036;-68
2020/12/27 11:57:22;;;;;;;2.97;1.30;;;13.10;62.10;;;;;;4992880;28;20457;-67
2020/12/27 11:59:48;;;;;;;3.78;1.55;;;13.10;62.50;;;;;;5015105;28;20041;-68
2020/12/27 12:02:13;;;;;;;7.68;1.63;;;13.10;61.70;;;;;;5018784;28;20506;-67
2020/12/27 12:04:39;;;;;;;4.68;1.90;;;13.10;63.00;;;;;;5007133;28;20026;-68
2020/12/27 12:07:04;;;;;;;5.03;1.40;;;13.10;62.40;;;;;;5003610;28;20026;-68
2020/12/27 12:09:31;;;;;;;4.10;1.38;;;13.00;62.90;;;;;;5023391;28;20084;-69
2020/12/27 12:11:56;;;;;;;10.38;1.60;;;13.00;61.90;;;;;;5007067;28;20029;-67
2020/12/27 12:14:22;;;;;;;4.65;1.50;;;13.00;61.80;;;;;;5004908;28;20022;-69
2020/12/27 12:16:47;;;;;;;4.32;1.40;;;13.00;61.90;;;;;;5012467;28;20035;-69
2020/12/27 12:19:13;;;;;;;8.40;2.08;;;13.00;62.10;;;;;;5015097;28;20038;-68
2020/12/27 12:21:39;;;;;;;3.95;1.20;;;12.90;61.60;;;;;;4992953;28;20026;-68
2020/12/27 12:24:04;;;;;;;3.65;1.83;;;12.90;62.20;;;;;;4999930;28;20029;-68
2020/12/27 12:26:32;;;;;;;6.10;1.40;;;12.90;62.80;;;;;;5026536;28;20029;-67
2020/12/27 12:28:59;;;;;;;5.50;1.48;;;12.80;61.40;;;;;;5006073;28;20121;-68
2020/12/27 12:31:26;;;;;;;7.75;1.92;;;12.90;61.50;;;;;;5001955;28;20030;-67
2020/12/27 12:33:52;;;;;;;8.50;1.83;;;12.70;62.00;;;;;;5012276;28;20513;-68
2020/12/27 12:36:19;;;;;;;10.10;2.20;;;12.70;62.20;;;;;;5028285;28;20041;-68
2020/12/27 12:38:45;;;;;;;7.90;1.67;;;12.80;62.40;;;;;;5005525;28;20029;-69
2020/12/27 12:41:11;;;;;;;6.45;1.70;;;12.80;62.10;;;;;;5012836;28;20037;-67
2020/12/27 12:43:41;;;;;;;11.82;2.20;;;12.70;63.10;;;;;;5014363;28;20494;-69
2020/12/27 12:46:08;;;;;;;10.55;2.28;;;12.70;61.60;;;;;;5014716;28;20490;-67
2020/12/27 12:48:35;;;;;;;8.73;2.35;;;12.70;62.90;;;;;;5031827;28;20029;-70
2020/12/27 12:51:00;;;;;;;9.82;2.78;;;12.60;61.70;;;;;;5033065;28;20021;-68